createdAt,value
2023-05-12T00:05:34.954Z,101671.09
2023-05-12T00:12:17.968Z,101682.50
2023-05-12T00:19:00.261Z,101690.47
2023-05-12T00:25:42.455Z,101678.22
2023-05-12T00:32:25.550Z,101682.59
2023-05-12T00:39:07.811Z,101685.22
2023-05-12T00:45:50.264Z,101686.97
2023-05-12T00:52:32.606Z,101694.00
2023-05-12T00:59:14.909Z,101695.75
2023-05-12T01:06:29.954Z,101704.53
2023-05-12T01:13:13.318Z,101706.28
2023-05-12T01:20:02.335Z,101714.19
2023-05-12T01:26:44.851Z,101713.28
2023-05-12T01:33:27.727Z,101718.53
2023-05-12T01:40:10.366Z,101722.06
2023-05-12T01:46:52.698Z,101723.81
2023-05-12T01:53:35.019Z,101726.38
2023-05-12T02:00:18.412Z,101731.59
2023-05-12T02:07:03.769Z,101736.00
2023-05-12T02:13:46.804Z,101735.09
2023-05-12T02:20:29.816Z,101742.97
2023-05-12T02:27:12.515Z,101743.81
2023-05-12T02:33:54.838Z,101750.84
2023-05-12T02:40:38.168Z,101742.91
2023-05-12T02:47:20.467Z,101748.13
2023-05-12T02:54:02.962Z,101744.63
2023-05-12T03:00:45.407Z,101752.44
2023-05-12T03:07:28.000Z,101750.66
2023-05-12T03:14:11.292Z,101756.75
2023-05-12T03:20:54.232Z,101749.75
2023-05-12T03:27:38.700Z,101752.41
2023-05-12T03:34:21.029Z,101752.41
2023-05-12T03:41:06.288Z,101769.09
2023-05-12T03:47:49.813Z,101759.47
2023-05-12T03:54:32.194Z,101768.25
2023-05-12T04:01:15.011Z,101770.06
2023-05-12T04:07:57.247Z,101773.59
2023-05-12T04:14:43.119Z,101779.78
2023-05-12T04:21:25.647Z,101779.81
2023-05-12T04:28:11.839Z,101797.38
2023-05-12T04:34:57.104Z,101795.72
2023-05-12T04:41:39.534Z,101793.97
2023-05-12T04:48:22.740Z,101793.13
2023-05-12T04:55:07.693Z,101800.19
2023-05-12T05:01:50.875Z,101801.03
2023-05-12T05:08:33.404Z,101807.16
2023-05-12T05:15:15.863Z,101800.09
2023-05-12T05:21:58.239Z,101795.63
2023-05-12T05:28:40.777Z,101814.88
2023-05-12T05:35:23.762Z,101820.06
2023-05-12T05:42:08.329Z,101825.22
2023-05-12T05:48:51.140Z,101818.06
2023-05-12T05:55:33.833Z,101830.22
2023-05-12T06:02:16.731Z,101834.44
2023-05-12T06:08:59.166Z,101828.94
2023-05-12T06:15:42.601Z,101836.63
2023-05-12T06:22:28.036Z,101844.25
2023-05-12T06:29:10.236Z,101850.94
2023-05-12T06:35:52.468Z,101855.00
2023-05-12T06:42:34.707Z,101860.81
2023-05-12T06:49:24.396Z,101864.78
2023-05-12T06:56:06.950Z,101859.81
2023-05-12T07:02:49.284Z,101860.09
2023-05-12T07:09:31.438Z,101854.97
2023-05-12T07:16:18.758Z,101855.97
2023-05-12T07:23:01.015Z,101852.41
2023-05-12T07:29:43.152Z,101852.47
2023-05-12T07:36:25.384Z,101845.38
2023-05-12T07:43:08.069Z,101856.88
2023-05-12T07:49:50.243Z,101846.13
2023-05-12T07:56:32.806Z,101836.25
2023-05-12T08:03:16.654Z,101845.94
2023-05-12T08:09:58.934Z,101843.94
2023-05-12T08:16:42.648Z,101842.00
2023-05-12T08:23:24.924Z,101834.66
2023-05-12T08:30:08.191Z,101846.72
2023-05-12T08:36:52.698Z,101848.13
2023-05-12T08:43:45.819Z,101852.50
2023-05-12T08:50:31.124Z,101855.03
2023-05-12T08:57:13.412Z,101856.69
2023-05-12T09:03:55.717Z,101856.69
2023-05-12T09:10:38.450Z,101847.84
2023-05-12T09:17:20.797Z,101828.59
2023-05-12T09:24:06.784Z,101846.06
2023-05-12T09:30:49.193Z,101847.69
2023-05-12T09:37:35.344Z,101854.72
2023-05-12T09:44:17.741Z,101848.28
2023-05-12T09:51:00.716Z,101840.09
2023-05-12T09:57:44.786Z,101836.00
2023-05-12T10:04:30.061Z,101842.50
2023-05-12T10:11:13.511Z,101833.19
2023-05-12T10:17:56.661Z,101826.81
2023-05-12T10:24:40.878Z,101819.75
2023-05-12T10:31:24.304Z,101818.53
2023-05-12T10:38:15.073Z,101817.03
2023-05-12T10:44:57.327Z,101820.81
2023-05-12T10:51:45.558Z,101813.19
2023-05-12T10:58:28.126Z,101812.97
2023-05-12T11:05:13.014Z,101812.59
2023-05-12T11:11:56.583Z,101803.03
2023-05-12T11:18:39.104Z,101813.06
2023-05-12T11:25:21.657Z,101802.69
2023-05-12T11:32:04.388Z,101805.50
2023-05-12T11:38:53.245Z,101821.13
2023-05-12T11:45:35.544Z,101800.34
2023-05-12T11:52:19.891Z,101804.75
2023-05-12T11:59:02.392Z,101787.78
2023-05-12T12:05:57.210Z,101801.44
2023-05-12T12:12:40.539Z,101812.81
2023-05-12T12:19:23.048Z,101803.38
2023-05-12T12:26:05.714Z,101805.19
2023-05-12T12:32:48.021Z,101797.03
2023-05-12T12:39:30.743Z,101794.19
2023-05-12T12:46:13.122Z,101784.78
2023-05-12T12:52:55.381Z,101783.22
2023-05-12T12:59:37.608Z,101768.13
2023-05-12T13:06:19.746Z,101766.00
2023-05-12T13:13:02.139Z,101760.19
2023-05-12T13:19:44.552Z,101759.69
2023-05-12T13:26:27.051Z,101748.03
2023-05-12T13:33:09.429Z,101751.44
2023-05-12T13:39:51.818Z,101747.72
2023-05-12T13:46:34.066Z,101745.91
2023-05-12T13:53:16.480Z,101745.13
2023-05-12T13:59:58.787Z,101730.22
2023-05-12T14:06:41.140Z,101741.25
2023-05-12T14:13:24.622Z,101742.16
2023-05-12T14:20:08.248Z,101728.72
2023-05-12T14:26:50.530Z,101736.59
2023-05-12T14:33:32.966Z,101723.81
2023-05-12T14:40:15.228Z,101722.97
2023-05-12T14:46:57.651Z,101732.63
2023-05-12T14:53:40.204Z,101731.19
2023-05-12T15:00:22.772Z,101728.34
2023-05-12T15:07:05.140Z,101727.88
2023-05-12T15:13:47.733Z,101731.53
2023-05-12T15:20:30.157Z,101727.34
2023-05-12T15:27:12.428Z,101721.88
2023-05-12T15:33:54.764Z,101728.16
2023-05-12T15:40:37.236Z,101716.22
2023-05-12T15:47:19.384Z,101719.59
2023-05-12T15:54:01.873Z,101715.09
2023-05-12T16:00:47.931Z,101710.63
2023-05-12T16:07:31.189Z,101714.34
2023-05-12T16:14:14.508Z,101701.06
2023-05-12T16:20:57.864Z,101702.91
2023-05-12T16:27:40.618Z,101700.41
2023-05-12T16:34:24.970Z,101707.03
2023-05-12T16:41:07.696Z,101702.50
2023-05-12T16:47:51.461Z,101703.59
2023-05-12T16:54:33.828Z,101697.78
2023-05-12T17:01:16.635Z,101704.66
2023-05-12T17:07:58.907Z,101705.13
2023-05-12T17:14:47.954Z,101700.69
2023-05-12T17:21:35.543Z,101707.00
2023-05-12T17:28:17.725Z,101714.81
2023-05-12T17:34:59.864Z,101713.00
2023-05-12T17:41:44.001Z,101718.25
2023-05-12T17:48:26.513Z,101724.34
2023-05-12T17:55:09.750Z,101722.84
2023-05-12T18:01:52.322Z,101724.00
2023-05-12T18:08:34.668Z,101732.50
2023-05-12T18:15:20.027Z,101738.34
2023-05-12T18:22:03.241Z,101749.69
2023-05-12T18:28:45.617Z,101753.78
2023-05-12T18:35:27.938Z,101760.72
2023-05-12T18:42:11.520Z,101764.75
2023-05-12T18:48:53.826Z,101767.81
2023-05-12T18:55:36.112Z,101783.25
2023-05-12T19:02:18.467Z,101787.81
2023-05-12T19:09:00.763Z,101801.22
2023-05-12T19:15:42.908Z,101795.59
2023-05-12T19:22:26.683Z,101802.47
2023-05-12T19:29:08.896Z,101807.66
2023-05-12T19:35:51.162Z,101809.28
2023-05-12T19:42:34.593Z,101817.06
2023-05-12T19:49:16.790Z,101825.97
2023-05-12T19:55:59.054Z,101828.56
2023-05-12T20:02:42.467Z,101828.34
2023-05-12T20:09:27.703Z,101818.16
2023-05-12T20:16:09.919Z,101823.00
2023-05-12T20:22:52.829Z,101828.53
2023-05-12T20:29:35.086Z,101835.81
2023-05-12T20:36:17.242Z,101837.84
2023-05-12T20:42:59.390Z,101831.97
2023-05-12T20:49:42.200Z,101827.72
2023-05-12T20:56:24.462Z,101836.88
2023-05-12T21:03:06.973Z,101838.09
2023-05-12T21:09:49.285Z,101840.94
2023-05-12T21:16:31.504Z,101845.59
2023-05-12T21:23:13.924Z,101848.41
2023-05-12T21:29:57.598Z,101857.50
2023-05-12T21:36:40.185Z,101855.00
2023-05-12T21:43:22.360Z,101858.66
2023-05-12T21:50:05.107Z,101862.31
2023-05-12T21:56:47.346Z,101864.19
2023-05-12T22:03:29.686Z,101866.97
2023-05-12T22:10:11.951Z,101866.22
2023-05-12T22:16:54.348Z,101868.94
2023-05-12T22:23:37.304Z,101868.09
2023-05-12T22:30:20.443Z,101867.28
2023-05-12T22:37:02.880Z,101872.59
2023-05-12T22:43:45.054Z,101878.81
2023-05-12T22:50:27.365Z,101880.59
2023-05-12T22:57:09.609Z,101870.97
2023-05-12T23:03:51.777Z,101872.81
2023-05-12T23:10:34.008Z,101872.88
2023-05-12T23:17:16.218Z,101876.44
2023-05-12T23:23:58.589Z,101880.81
2023-05-12T23:30:40.877Z,101882.63
2023-05-12T23:37:24.607Z,101882.63
2023-05-12T23:44:06.732Z,101880.00
2023-05-12T23:50:49.057Z,101882.66
2023-05-12T23:57:31.216Z,101881.75
